sensor_id;sensor_type;location;lat;lon;timestamp;P1;durP1;ratioP1;P2;durP2;ratioP2
54171;SDS011;40076;52.354;4.970;2024-03-25T00:01:22;20.60;;;3.88;;
54171;SDS011;40076;52.354;4.970;2024-03-25T00:03:47;25.48;;;4.18;;
54171;SDS011;40076;52.354;4.970;2024-03-25T00:06:13;26.00;;;3.78;;
54171;SDS011;40076;52.354;4.970;2024-03-25T00:08:39;22.90;;;3.75;;
54171;SDS011;40076;52.354;4.970;2024-03-25T00:11:04;18.52;;;3.22;;
54171;SDS011;40076;52.354;4.970;2024-03-25T00:13:29;21.40;;;3.35;;
54171;SDS011;40076;52.354;4.970;2024-03-25T00:15:54;23.92;;;3.15;;
54171;SDS011;40076;52.354;4.970;2024-03-25T00:18:20;30.27;;;4.00;;
54171;SDS011;40076;52.354;4.970;2024-03-25T00:20:45;24.83;;;3.25;;
54171;SDS011;40076;52.354;4.970;2024-03-25T00:23:10;22.80;;;3.40;;
54171;SDS011;40076;52.354;4.970;2024-03-25T00:25:36;20.70;;;3.30;;
54171;SDS011;40076;52.354;4.970;2024-03-25T00:28:02;23.05;;;4.40;;
54171;SDS011;40076;52.354;4.970;2024-03-25T00:30:27;24.20;;;3.58;;
54171;SDS011;40076;52.354;4.970;2024-03-25T00:32:53;22.38;;;3.08;;
54171;SDS011;40076;52.354;4.970;2024-03-25T00:35:18;24.98;;;3.50;;
54171;SDS011;40076;52.354;4.970;2024-03-25T00:37:43;25.23;;;3.42;;
54171;SDS011;40076;52.354;4.970;2024-03-25T00:40:10;22.42;;;4.32;;
54171;SDS011;40076;52.354;4.970;2024-03-25T00:42:36;20.48;;;3.28;;
54171;SDS011;40076;52.354;4.970;2024-03-25T00:45:02;23.98;;;3.35;;
54171;SDS011;40076;52.354;4.970;2024-03-25T00:47:27;27.08;;;3.38;;
54171;SDS011;40076;52.354;4.970;2024-03-25T00:49:53;20.08;;;3.22;;
54171;SDS011;40076;52.354;4.970;2024-03-25T00:52:18;20.77;;;3.15;;
54171;SDS011;40076;52.354;4.970;2024-03-25T00:54:43;20.80;;;3.50;;
54171;SDS011;40076;52.354;4.970;2024-03-25T00:57:09;19.40;;;3.20;;
54171;SDS011;40076;52.354;4.970;2024-03-25T00:59:36;26.95;;;3.00;;
54171;SDS011;40076;52.354;4.970;2024-03-25T01:02:02;26.48;;;3.53;;
54171;SDS011;40076;52.354;4.970;2024-03-25T01:04:27;24.15;;;3.55;;
54171;SDS011;40076;52.354;4.970;2024-03-25T01:06:53;24.38;;;3.30;;
54171;SDS011;40076;52.354;4.970;2024-03-25T01:09:19;22.75;;;2.78;;
54171;SDS011;40076;52.354;4.970;2024-03-25T01:11:44;31.38;;;4.32;;
54171;SDS011;40076;52.354;4.970;2024-03-25T01:14:09;16.95;;;2.83;;
54171;SDS011;40076;52.354;4.970;2024-03-25T01:16:35;24.35;;;4.00;;
54171;SDS011;40076;52.354;4.970;2024-03-25T01:19:00;20.20;;;4.28;;
54171;SDS011;40076;52.354;4.970;2024-03-25T01:21:25;22.38;;;3.40;;
54171;SDS011;40076;52.354;4.970;2024-03-25T01:23:51;21.70;;;4.75;;
54171;SDS011;40076;52.354;4.970;2024-03-25T01:26:16;22.15;;;3.90;;
54171;SDS011;40076;52.354;4.970;2024-03-25T01:28:42;20.58;;;3.08;;
54171;SDS011;40076;52.354;4.970;2024-03-25T01:31:07;22.42;;;3.28;;
54171;SDS011;40076;52.354;4.970;2024-03-25T01:33:33;26.23;;;3.72;;
54171;SDS011;40076;52.354;4.970;2024-03-25T01:35:59;19.40;;;3.60;;
54171;SDS011;40076;52.354;4.970;2024-03-25T01:38:24;20.02;;;3.33;;
54171;SDS011;40076;52.354;4.970;2024-03-25T01:40:50;23.63;;;5.45;;
54171;SDS011;40076;52.354;4.970;2024-03-25T01:43:15;19.27;;;3.13;;
54171;SDS011;40076;52.354;4.970;2024-03-25T01:45:40;27.50;;;3.80;;
54171;SDS011;40076;52.354;4.970;2024-03-25T01:48:07;17.90;;;3.17;;
54171;SDS011;40076;52.354;4.970;2024-03-25T01:50:39;25.02;;;3.88;;
54171;SDS011;40076;52.354;4.970;2024-03-25T01:53:08;18.88;;;2.65;;
54171;SDS011;40076;52.354;4.970;2024-03-25T01:55:34;24.95;;;3.40;;
54171;SDS011;40076;52.354;4.970;2024-03-25T01:58:01;19.55;;;3.70;;
54171;SDS011;40076;52.354;4.970;2024-03-25T02:00:27;19.85;;;2.88;;
54171;SDS011;40076;52.354;4.970;2024-03-25T02:02:53;19.38;;;3.85;;
54171;SDS011;40076;52.354;4.970;2024-03-25T02:05:19;29.73;;;4.97;;
54171;SDS011;40076;52.354;4.970;2024-03-25T02:07:45;25.52;;;4.32;;
54171;SDS011;40076;52.354;4.970;2024-03-25T02:10:11;28.17;;;4.90;;
54171;SDS011;40076;52.354;4.970;2024-03-25T02:12:43;28.15;;;5.30;;
54171;SDS011;40076;52.354;4.970;2024-03-25T02:15:11;39.22;;;8.32;;
54171;SDS011;40076;52.354;4.970;2024-03-25T02:17:41;36.75;;;9.70;;
54171;SDS011;40076;52.354;4.970;2024-03-25T02:20:06;28.65;;;9.25;;
54171;SDS011;40076;52.354;4.970;2024-03-25T02:22:35;33.45;;;8.43;;
54171;SDS011;40076;52.354;4.970;2024-03-25T02:25:07;25.90;;;7.28;;
54171;SDS011;40076;52.354;4.970;2024-03-25T02:27:34;28.08;;;5.97;;
54171;SDS011;40076;52.354;4.970;2024-03-25T02:32:31;19.63;;;3.80;;
54171;SDS011;40076;52.354;4.970;2024-03-25T02:34:56;26.90;;;4.25;;
54171;SDS011;40076;52.354;4.970;2024-03-25T02:37:22;19.50;;;4.05;;
54171;SDS011;40076;52.354;4.970;2024-03-25T02:39:48;22.15;;;3.75;;
54171;SDS011;40076;52.354;4.970;2024-03-25T02:42:14;24.90;;;3.15;;
54171;SDS011;40076;52.354;4.970;2024-03-25T02:44:39;28.55;;;4.20;;
54171;SDS011;40076;52.354;4.970;2024-03-25T02:47:08;17.60;;;4.05;;
54171;SDS011;40076;52.354;4.970;2024-03-25T02:49:34;22.38;;;3.90;;
54171;SDS011;40076;52.354;4.970;2024-03-25T02:51:59;25.50;;;3.67;;
54171;SDS011;40076;52.354;4.970;2024-03-25T02:54:25;21.83;;;2.72;;
54171;SDS011;40076;52.354;4.970;2024-03-25T02:56:50;18.05;;;2.35;;
54171;SDS011;40076;52.354;4.970;2024-03-25T02:59:15;19.55;;;3.33;;
54171;SDS011;40076;52.354;4.970;2024-03-25T03:01:41;23.65;;;2.80;;
54171;SDS011;40076;52.354;4.970;2024-03-25T03:04:06;21.70;;;3.10;;
54171;SDS011;40076;52.354;4.970;2024-03-25T03:06:32;20.58;;;2.63;;
54171;SDS011;40076;52.354;4.970;2024-03-25T03:08:57;19.05;;;3.00;;
54171;SDS011;40076;52.354;4.970;2024-03-25T03:11:22;20.88;;;3.03;;
54171;SDS011;40076;52.354;4.970;2024-03-25T03:13:47;16.77;;;2.67;;
54171;SDS011;40076;52.354;4.970;2024-03-25T03:16:13;21.52;;;3.45;;
54171;SDS011;40076;52.354;4.970;2024-03-25T03:18:39;15.27;;;2.38;;
54171;SDS011;40076;52.354;4.970;2024-03-25T03:21:04;17.65;;;2.42;;
54171;SDS011;40076;52.354;4.970;2024-03-25T03:23:30;19.00;;;2.35;;
54171;SDS011;40076;52.354;4.970;2024-03-25T03:25:55;14.27;;;3.25;;
54171;SDS011;40076;52.354;4.970;2024-03-25T03:28:22;23.65;;;3.03;;
54171;SDS011;40076;52.354;4.970;2024-03-25T03:30:47;13.30;;;2.58;;
54171;SDS011;40076;52.354;4.970;2024-03-25T03:33:12;15.07;;;2.60;;
54171;SDS011;40076;52.354;4.970;2024-03-25T03:35:38;16.92;;;2.97;;
54171;SDS011;40076;52.354;4.970;2024-03-25T03:38:03;17.02;;;1.95;;
54171;SDS011;40076;52.354;4.970;2024-03-25T03:40:29;14.15;;;2.05;;
54171;SDS011;40076;52.354;4.970;2024-03-25T03:42:54;16.45;;;2.60;;
54171;SDS011;40076;52.354;4.970;2024-03-25T03:45:21;13.55;;;2.85;;
54171;SDS011;40076;52.354;4.970;2024-03-25T03:47:48;15.73;;;2.88;;
54171;SDS011;40076;52.354;4.970;2024-03-25T03:50:14;12.23;;;2.15;;
54171;SDS011;40076;52.354;4.970;2024-03-25T03:52:42;13.15;;;2.25;;
54171;SDS011;40076;52.354;4.970;2024-03-25T03:55:08;18.10;;;2.60;;
54171;SDS011;40076;52.354;4.970;2024-03-25T03:57:33;16.40;;;2.35;;
54171;SDS011;40076;52.354;4.970;2024-03-25T03:59:58;7.68;;;2.20;;
54171;SDS011;40076;52.354;4.970;2024-03-25T04:02:27;12.45;;;2.60;;
54171;SDS011;40076;52.354;4.970;2024-03-25T04:04:53;13.98;;;2.03;;
54171;SDS011;40076;52.354;4.970;2024-03-25T04:07:19;15.73;;;2.15;;
54171;SDS011;40076;52.354;4.970;2024-03-25T04:09:44;13.02;;;2.38;;
54171;SDS011;40076;52.354;4.970;2024-03-25T04:12:09;15.35;;;2.45;;
54171;SDS011;40076;52.354;4.970;2024-03-25T04:14:35;13.07;;;2.22;;
54171;SDS011;40076;52.354;4.970;2024-03-25T04:17:00;17.25;;;2.25;;
54171;SDS011;40076;52.354;4.970;2024-03-25T04:19:26;17.75;;;2.67;;
54171;SDS011;40076;52.354;4.970;2024-03-25T04:21:53;14.95;;;2.10;;
54171;SDS011;40076;52.354;4.970;2024-03-25T04:24:18;17.30;;;2.70;;
54171;SDS011;40076;52.354;4.970;2024-03-25T04:26:44;15.77;;;2.78;;
54171;SDS011;40076;52.354;4.970;2024-03-25T04:29:09;14.95;;;2.63;;
54171;SDS011;40076;52.354;4.970;2024-03-25T04:31:35;14.85;;;3.67;;
54171;SDS011;40076;52.354;4.970;2024-03-25T04:34:02;9.40;;;2.13;;
54171;SDS011;40076;52.354;4.970;2024-03-25T04:36:28;13.50;;;2.97;;
54171;SDS011;40076;52.354;4.970;2024-03-25T04:38:53;16.23;;;3.28;;
54171;SDS011;40076;52.354;4.970;2024-03-25T04:41:19;21.73;;;3.65;;
54171;SDS011;40076;52.354;4.970;2024-03-25T04:43:44;16.58;;;3.40;;
54171;SDS011;40076;52.354;4.970;2024-03-25T04:46:10;16.55;;;3.08;;
54171;SDS011;40076;52.354;4.970;2024-03-25T04:48:36;13.43;;;3.03;;
54171;SDS011;40076;52.354;4.970;2024-03-25T04:51:01;14.32;;;2.42;;
54171;SDS011;40076;52.354;4.970;2024-03-25T04:53:26;16.02;;;2.63;;
54171;SDS011;40076;52.354;4.970;2024-03-25T04:55:52;18.05;;;4.72;;
54171;SDS011;40076;52.354;4.970;2024-03-25T04:58:17;16.23;;;2.95;;
54171;SDS011;40076;52.354;4.970;2024-03-25T05:00:42;18.30;;;2.78;;
54171;SDS011;40076;52.354;4.970;2024-03-25T05:03:08;18.27;;;3.78;;
54171;SDS011;40076;52.354;4.970;2024-03-25T05:05:33;12.15;;;3.60;;
54171;SDS011;40076;52.354;4.970;2024-03-25T05:07:58;17.48;;;4.60;;
54171;SDS011;40076;52.354;4.970;2024-03-25T05:10:24;22.70;;;4.28;;
54171;SDS011;40076;52.354;4.970;2024-03-25T05:12:49;22.38;;;5.25;;
54171;SDS011;40076;52.354;4.970;2024-03-25T05:15:14;17.20;;;4.63;;
54171;SDS011;40076;52.354;4.970;2024-03-25T05:17:40;19.65;;;5.15;;
54171;SDS011;40076;52.354;4.970;2024-03-25T05:20:06;21.73;;;4.68;;
54171;SDS011;40076;52.354;4.970;2024-03-25T05:22:31;21.17;;;4.32;;
54171;SDS011;40076;52.354;4.970;2024-03-25T05:24:56;19.85;;;4.45;;
54171;SDS011;40076;52.354;4.970;2024-03-25T05:27:22;17.05;;;4.10;;
54171;SDS011;40076;52.354;4.970;2024-03-25T05:29:48;23.13;;;3.90;;
54171;SDS011;40076;52.354;4.970;2024-03-25T05:32:14;21.40;;;4.50;;
54171;SDS011;40076;52.354;4.970;2024-03-25T05:34:41;21.48;;;3.75;;
54171;SDS011;40076;52.354;4.970;2024-03-25T05:37:07;17.75;;;4.00;;
54171;SDS011;40076;52.354;4.970;2024-03-25T05:39:32;19.38;;;4.82;;
54171;SDS011;40076;52.354;4.970;2024-03-25T05:41:57;22.00;;;4.10;;
54171;SDS011;40076;52.354;4.970;2024-03-25T05:44:23;18.92;;;4.43;;
54171;SDS011;40076;52.354;4.970;2024-03-25T05:46:48;20.77;;;4.57;;
54171;SDS011;40076;52.354;4.970;2024-03-25T05:49:14;19.67;;;4.50;;
54171;SDS011;40076;52.354;4.970;2024-03-25T05:51:39;17.52;;;3.95;;
54171;SDS011;40076;52.354;4.970;2024-03-25T05:54:04;20.92;;;3.75;;
54171;SDS011;40076;52.354;4.970;2024-03-25T05:56:30;19.17;;;4.43;;
54171;SDS011;40076;52.354;4.970;2024-03-25T05:58:59;20.23;;;3.72;;
54171;SDS011;40076;52.354;4.970;2024-03-25T06:01:25;17.98;;;3.78;;
54171;SDS011;40076;52.354;4.970;2024-03-25T06:03:51;22.85;;;3.60;;
54171;SDS011;40076;52.354;4.970;2024-03-25T06:06:17;25.27;;;4.18;;
54171;SDS011;40076;52.354;4.970;2024-03-25T06:08:42;23.63;;;4.40;;
54171;SDS011;40076;52.354;4.970;2024-03-25T06:11:07;22.08;;;4.15;;
54171;SDS011;40076;52.354;4.970;2024-03-25T06:13:33;20.35;;;3.97;;
54171;SDS011;40076;52.354;4.970;2024-03-25T06:15:58;23.52;;;3.80;;
54171;SDS011;40076;52.354;4.970;2024-03-25T06:18:24;18.60;;;3.78;;
54171;SDS011;40076;52.354;4.970;2024-03-25T06:20:50;17.13;;;3.38;;
54171;SDS011;40076;52.354;4.970;2024-03-25T06:23:21;20.30;;;3.67;;
54171;SDS011;40076;52.354;4.970;2024-03-25T06:25:51;23.50;;;4.35;;
54171;SDS011;40076;52.354;4.970;2024-03-25T06:28:18;17.52;;;3.55;;
54171;SDS011;40076;52.354;4.970;2024-03-25T06:30:44;19.95;;;4.13;;
54171;SDS011;40076;52.354;4.970;2024-03-25T06:33:29;18.45;;;3.40;;
54171;SDS011;40076;52.354;4.970;2024-03-25T06:36:13;25.85;;;4.20;;
54171;SDS011;40076;52.354;4.970;2024-03-25T06:38:38;18.17;;;4.25;;
54171;SDS011;40076;52.354;4.970;2024-03-25T06:41:03;19.83;;;3.70;;
54171;SDS011;40076;52.354;4.970;2024-03-25T06:43:29;21.77;;;4.18;;
54171;SDS011;40076;52.354;4.970;2024-03-25T06:45:56;28.08;;;4.25;;
54171;SDS011;40076;52.354;4.970;2024-03-25T06:48:22;22.65;;;4.15;;
54171;SDS011;40076;52.354;4.970;2024-03-25T06:50:56;19.88;;;4.63;;
54171;SDS011;40076;52.354;4.970;2024-03-25T06:53:22;20.15;;;3.85;;
54171;SDS011;40076;52.354;4.970;2024-03-25T06:55:54;17.17;;;4.47;;
54171;SDS011;40076;52.354;4.970;2024-03-25T06:58:21;18.17;;;4.43;;
54171;SDS011;40076;52.354;4.970;2024-03-25T07:00:47;26.00;;;6.13;;
54171;SDS011;40076;52.354;4.970;2024-03-25T07:03:14;23.45;;;4.90;;
54171;SDS011;40076;52.354;4.970;2024-03-25T07:05:46;19.30;;;3.72;;
54171;SDS011;40076;52.354;4.970;2024-03-25T07:08:12;17.42;;;3.75;;
54171;SDS011;40076;52.354;4.970;2024-03-25T07:10:38;26.30;;;3.95;;
54171;SDS011;40076;52.354;4.970;2024-03-25T07:13:06;22.35;;;4.18;;
54171;SDS011;40076;52.354;4.970;2024-03-25T07:15:31;18.58;;;3.63;;
54171;SDS011;40076;52.354;4.970;2024-03-25T07:17:56;21.67;;;4.07;;
54171;SDS011;40076;52.354;4.970;2024-03-25T07:20:22;17.40;;;4.07;;
54171;SDS011;40076;52.354;4.970;2024-03-25T07:22:48;25.80;;;4.40;;
54171;SDS011;40076;52.354;4.970;2024-03-25T07:25:13;19.85;;;3.83;;
54171;SDS011;40076;52.354;4.970;2024-03-25T07:27:39;19.05;;;4.35;;
54171;SDS011;40076;52.354;4.970;2024-03-25T07:30:05;27.83;;;4.07;;
54171;SDS011;40076;52.354;4.970;2024-03-25T07:32:39;23.92;;;4.20;;
54171;SDS011;40076;52.354;4.970;2024-03-25T07:35:04;18.33;;;3.78;;
54171;SDS011;40076;52.354;4.970;2024-03-25T07:37:30;17.35;;;3.80;;
54171;SDS011;40076;52.354;4.970;2024-03-25T07:39:56;24.23;;;3.85;;
54171;SDS011;40076;52.354;4.970;2024-03-25T07:42:21;17.30;;;4.13;;
54171;SDS011;40076;52.354;4.970;2024-03-25T07:44:46;18.80;;;4.57;;
54171;SDS011;40076;52.354;4.970;2024-03-25T07:47:12;15.43;;;4.35;;
54171;SDS011;40076;52.354;4.970;2024-03-25T07:49:37;20.60;;;4.10;;
54171;SDS011;40076;52.354;4.970;2024-03-25T07:52:05;16.23;;;3.40;;
54171;SDS011;40076;52.354;4.970;2024-03-25T07:54:33;16.42;;;4.20;;
54171;SDS011;40076;52.354;4.970;2024-03-25T07:57:08;20.60;;;3.35;;
54171;SDS011;40076;52.354;4.970;2024-03-25T07:59:34;18.42;;;3.45;;
54171;SDS011;40076;52.354;4.970;2024-03-25T08:01:59;12.50;;;3.25;;
54171;SDS011;40076;52.354;4.970;2024-03-25T08:04:25;17.85;;;2.95;;
54171;SDS011;40076;52.354;4.970;2024-03-25T08:06:50;18.95;;;3.58;;
54171;SDS011;40076;52.354;4.970;2024-03-25T08:09:15;14.82;;;3.10;;
54171;SDS011;40076;52.354;4.970;2024-03-25T08:11:42;13.25;;;3.22;;
54171;SDS011;40076;52.354;4.970;2024-03-25T08:14:08;17.05;;;4.20;;
54171;SDS011;40076;52.354;4.970;2024-03-25T08:16:34;17.23;;;3.33;;
54171;SDS011;40076;52.354;4.970;2024-03-25T08:18:59;14.85;;;3.80;;
54171;SDS011;40076;52.354;4.970;2024-03-25T08:21:25;24.02;;;3.78;;
54171;SDS011;40076;52.354;4.970;2024-03-25T08:23:50;18.60;;;4.07;;
54171;SDS011;40076;52.354;4.970;2024-03-25T08:26:16;13.02;;;3.13;;
54171;SDS011;40076;52.354;4.970;2024-03-25T08:28:42;17.75;;;4.13;;
54171;SDS011;40076;52.354;4.970;2024-03-25T08:31:07;21.90;;;4.68;;
54171;SDS011;40076;52.354;4.970;2024-03-25T08:33:32;13.70;;;3.35;;
54171;SDS011;40076;52.354;4.970;2024-03-25T08:35:57;22.48;;;5.68;;
54171;SDS011;40076;52.354;4.970;2024-03-25T08:38:23;15.63;;;3.60;;
54171;SDS011;40076;52.354;4.970;2024-03-25T08:40:48;24.40;;;4.22;;
54171;SDS011;40076;52.354;4.970;2024-03-25T08:43:13;21.35;;;4.80;;
54171;SDS011;40076;52.354;4.970;2024-03-25T08:45:39;15.52;;;3.10;;
54171;SDS011;40076;52.354;4.970;2024-03-25T08:48:05;21.13;;;3.15;;
54171;SDS011;40076;52.354;4.970;2024-03-25T08:50:31;21.60;;;2.80;;
54171;SDS011;40076;52.354;4.970;2024-03-25T08:52:57;14.90;;;2.42;;
54171;SDS011;40076;52.354;4.970;2024-03-25T08:55:22;13.18;;;3.13;;
54171;SDS011;40076;52.354;4.970;2024-03-25T08:57:47;14.73;;;3.40;;
54171;SDS011;40076;52.354;4.970;2024-03-25T09:00:13;12.50;;;2.97;;
54171;SDS011;40076;52.354;4.970;2024-03-25T09:02:39;15.25;;;2.83;;
54171;SDS011;40076;52.354;4.970;2024-03-25T09:05:04;19.00;;;3.22;;
54171;SDS011;40076;52.354;4.970;2024-03-25T09:07:30;14.95;;;2.92;;
54171;SDS011;40076;52.354;4.970;2024-03-25T09:09:56;19.23;;;3.30;;
54171;SDS011;40076;52.354;4.970;2024-03-25T09:12:40;32.30;;;4.82;;
54171;SDS011;40076;52.354;4.970;2024-03-25T09:15:05;16.88;;;2.85;;
54171;SDS011;40076;52.354;4.970;2024-03-25T09:17:31;15.00;;;3.03;;
54171;SDS011;40076;52.354;4.970;2024-03-25T09:19:56;15.23;;;3.15;;
54171;SDS011;40076;52.354;4.970;2024-03-25T09:22:21;18.40;;;3.65;;
54171;SDS011;40076;52.354;4.970;2024-03-25T09:24:48;20.42;;;3.75;;
54171;SDS011;40076;52.354;4.970;2024-03-25T09:27:14;21.25;;;4.65;;
54171;SDS011;40076;52.354;4.970;2024-03-25T09:29:40;23.63;;;3.72;;
54171;SDS011;40076;52.354;4.970;2024-03-25T09:32:08;16.30;;;3.08;;
54171;SDS011;40076;52.354;4.970;2024-03-25T09:34:33;17.80;;;4.03;;
54171;SDS011;40076;52.354;4.970;2024-03-25T09:36:59;23.10;;;4.63;;
54171;SDS011;40076;52.354;4.970;2024-03-25T09:39:24;21.45;;;3.65;;
54171;SDS011;40076;52.354;4.970;2024-03-25T09:41:50;24.67;;;3.75;;
54171;SDS011;40076;52.354;4.970;2024-03-25T09:44:21;17.75;;;3.90;;
54171;SDS011;40076;52.354;4.970;2024-03-25T09:46:49;19.50;;;3.40;;
54171;SDS011;40076;52.354;4.970;2024-03-25T09:49:15;16.27;;;3.70;;
54171;SDS011;40076;52.354;4.970;2024-03-25T09:51:41;21.10;;;3.78;;
54171;SDS011;40076;52.354;4.970;2024-03-25T09:54:07;17.75;;;3.55;;
54171;SDS011;40076;52.354;4.970;2024-03-25T09:56:32;16.02;;;3.15;;
54171;SDS011;40076;52.354;4.970;2024-03-25T09:58:58;18.30;;;4.15;;
54171;SDS011;40076;52.354;4.970;2024-03-25T10:01:24;20.65;;;3.47;;
54171;SDS011;40076;52.354;4.970;2024-03-25T10:03:49;19.20;;;3.67;;
54171;SDS011;40076;52.354;4.970;2024-03-25T10:06:16;17.08;;;4.10;;
54171;SDS011;40076;52.354;4.970;2024-03-25T10:08:41;16.88;;;3.55;;
54171;SDS011;40076;52.354;4.970;2024-03-25T10:11:06;19.98;;;4.05;;
54171;SDS011;40076;52.354;4.970;2024-03-25T10:13:32;23.13;;;6.28;;
54171;SDS011;40076;52.354;4.970;2024-03-25T10:15:57;22.08;;;4.13;;
54171;SDS011;40076;52.354;4.970;2024-03-25T10:18:23;20.83;;;4.10;;
54171;SDS011;40076;52.354;4.970;2024-03-25T10:20:51;17.20;;;4.50;;
54171;SDS011;40076;52.354;4.970;2024-03-25T10:23:20;23.67;;;5.25;;
54171;SDS011;40076;52.354;4.970;2024-03-25T10:25:47;19.67;;;4.13;;
54171;SDS011;40076;52.354;4.970;2024-03-25T10:28:13;17.27;;;3.97;;
54171;SDS011;40076;52.354;4.970;2024-03-25T10:30:38;20.83;;;5.05;;
54171;SDS011;40076;52.354;4.970;2024-03-25T10:33:06;18.42;;;4.13;;
54171;SDS011;40076;52.354;4.970;2024-03-25T10:35:32;17.58;;;4.70;;
54171;SDS011;40076;52.354;4.970;2024-03-25T10:38:07;20.52;;;4.60;;
54171;SDS011;40076;52.354;4.970;2024-03-25T10:40:36;20.70;;;4.72;;
54171;SDS011;40076;52.354;4.970;2024-03-25T10:43:04;18.45;;;3.90;;
54171;SDS011;40076;52.354;4.970;2024-03-25T10:45:34;19.55;;;4.60;;
54171;SDS011;40076;52.354;4.970;2024-03-25T10:48:03;17.55;;;5.57;;
54171;SDS011;40076;52.354;4.970;2024-03-25T10:50:38;16.83;;;3.83;;
54171;SDS011;40076;52.354;4.970;2024-03-25T10:53:05;24.27;;;5.10;;
54171;SDS011;40076;52.354;4.970;2024-03-25T10:55:33;18.83;;;4.15;;
54171;SDS011;40076;52.354;4.970;2024-03-25T10:58:01;15.77;;;4.43;;
54171;SDS011;40076;52.354;4.970;2024-03-25T11:00:27;17.00;;;4.35;;
54171;SDS011;40076;52.354;4.970;2024-03-25T11:02:53;16.70;;;4.20;;
54171;SDS011;40076;52.354;4.970;2024-03-25T11:05:19;19.08;;;4.40;;
54171;SDS011;40076;52.354;4.970;2024-03-25T11:07:45;16.13;;;4.63;;
54171;SDS011;40076;52.354;4.970;2024-03-25T11:10:11;17.08;;;4.25;;
54171;SDS011;40076;52.354;4.970;2024-03-25T11:12:37;16.67;;;4.22;;
54171;SDS011;40076;52.354;4.970;2024-03-25T11:15:06;17.15;;;4.40;;
54171;SDS011;40076;52.354;4.970;2024-03-25T11:17:33;19.80;;;4.28;;
54171;SDS011;40076;52.354;4.970;2024-03-25T11:20:15;20.83;;;4.50;;
54171;SDS011;40076;52.354;4.970;2024-03-25T11:22:47;16.17;;;4.30;;
54171;SDS011;40076;52.354;4.970;2024-03-25T11:25:14;17.25;;;4.50;;
54171;SDS011;40076;52.354;4.970;2024-03-25T11:27:42;19.80;;;5.03;;
54171;SDS011;40076;52.354;4.970;2024-03-25T11:30:08;22.48;;;4.13;;
54171;SDS011;40076;52.354;4.970;2024-03-25T11:32:45;13.07;;;3.92;;
54171;SDS011;40076;52.354;4.970;2024-03-25T11:35:18;13.30;;;4.00;;
54171;SDS011;40076;52.354;4.970;2024-03-25T11:37:44;13.25;;;3.88;;
54171;SDS011;40076;52.354;4.970;2024-03-25T11:40:10;12.93;;;3.90;;
54171;SDS011;40076;52.354;4.970;2024-03-25T11:42:39;16.80;;;3.88;;
54171;SDS011;40076;52.354;4.970;2024-03-25T11:45:14;16.38;;;3.35;;
54171;SDS011;40076;52.354;4.970;2024-03-25T11:47:41;13.60;;;3.50;;
54171;SDS011;40076;52.354;4.970;2024-03-25T11:50:08;11.05;;;3.30;;
54171;SDS011;40076;52.354;4.970;2024-03-25T11:52:34;14.45;;;4.35;;
54171;SDS011;40076;52.354;4.970;2024-03-25T11:55:00;18.13;;;4.43;;
54171;SDS011;40076;52.354;4.970;2024-03-25T11:57:25;12.13;;;3.75;;
54171;SDS011;40076;52.354;4.970;2024-03-25T11:59:51;13.80;;;4.22;;
54171;SDS011;40076;52.354;4.970;2024-03-25T12:02:16;13.95;;;4.13;;
54171;SDS011;40076;52.354;4.970;2024-03-25T12:04:42;17.38;;;4.20;;
54171;SDS011;40076;52.354;4.970;2024-03-25T12:07:10;12.77;;;4.53;;
54171;SDS011;40076;52.354;4.970;2024-03-25T12:09:39;14.98;;;5.20;;
54171;SDS011;40076;52.354;4.970;2024-03-25T12:12:23;21.83;;;5.30;;
54171;SDS011;40076;52.354;4.970;2024-03-25T12:14:59;17.48;;;5.10;;
54171;SDS011;40076;52.354;4.970;2024-03-25T12:17:27;17.00;;;6.25;;
54171;SDS011;40076;52.354;4.970;2024-03-25T12:22:26;13.35;;;6.13;;
54171;SDS011;40076;52.354;4.970;2024-03-25T12:24:51;16.67;;;6.32;;
54171;SDS011;40076;52.354;4.970;2024-03-25T12:27:17;11.32;;;5.95;;
54171;SDS011;40076;52.354;4.970;2024-03-25T12:29:42;15.55;;;6.57;;
54171;SDS011;40076;52.354;4.970;2024-03-25T12:32:09;11.88;;;5.75;;
54171;SDS011;40076;52.354;4.970;2024-03-25T12:34:35;15.95;;;5.88;;
54171;SDS011;40076;52.354;4.970;2024-03-25T12:37:01;12.68;;;5.65;;
54171;SDS011;40076;52.354;4.970;2024-03-25T12:39:29;11.73;;;5.85;;
54171;SDS011;40076;52.354;4.970;2024-03-25T12:41:55;11.55;;;5.75;;
54171;SDS011;40076;52.354;4.970;2024-03-25T12:44:21;14.05;;;6.00;;
54171;SDS011;40076;52.354;4.970;2024-03-25T12:46:47;11.95;;;5.72;;
54171;SDS011;40076;52.354;4.970;2024-03-25T12:49:12;12.57;;;6.47;;
54171;SDS011;40076;52.354;4.970;2024-03-25T12:51:37;13.80;;;6.07;;
54171;SDS011;40076;52.354;4.970;2024-03-25T12:54:03;9.90;;;5.82;;
54171;SDS011;40076;52.354;4.970;2024-03-25T12:56:28;14.55;;;6.65;;
54171;SDS011;40076;52.354;4.970;2024-03-25T12:58:53;14.55;;;5.95;;
54171;SDS011;40076;52.354;4.970;2024-03-25T13:01:19;12.30;;;6.25;;
54171;SDS011;40076;52.354;4.970;2024-03-25T13:03:44;14.27;;;6.47;;
54171;SDS011;40076;52.354;4.970;2024-03-25T13:06:10;12.60;;;5.93;;
54171;SDS011;40076;52.354;4.970;2024-03-25T13:08:35;11.00;;;6.07;;
54171;SDS011;40076;52.354;4.970;2024-03-25T13:11:01;13.57;;;6.28;;
54171;SDS011;40076;52.354;4.970;2024-03-25T13:13:26;9.85;;;5.60;;
54171;SDS011;40076;52.354;4.970;2024-03-25T13:15:51;13.82;;;5.85;;
54171;SDS011;40076;52.354;4.970;2024-03-25T13:18:17;11.35;;;5.20;;
54171;SDS011;40076;52.354;4.970;2024-03-25T13:20:43;11.75;;;6.47;;
54171;SDS011;40076;52.354;4.970;2024-03-25T13:23:09;11.48;;;5.25;;
54171;SDS011;40076;52.354;4.970;2024-03-25T13:25:34;12.30;;;4.63;;
54171;SDS011;40076;52.354;4.970;2024-03-25T13:27:59;11.27;;;4.22;;
54171;SDS011;40076;52.354;4.970;2024-03-25T13:30:25;15.10;;;6.25;;
54171;SDS011;40076;52.354;4.970;2024-03-25T13:32:51;9.82;;;4.40;;
54171;SDS011;40076;52.354;4.970;2024-03-25T13:35:17;12.00;;;4.25;;
54171;SDS011;40076;52.354;4.970;2024-03-25T13:37:42;10.70;;;3.35;;
54171;SDS011;40076;52.354;4.970;2024-03-25T13:40:08;8.40;;;3.65;;
54171;SDS011;40076;52.354;4.970;2024-03-25T13:42:34;8.35;;;3.90;;
54171;SDS011;40076;52.354;4.970;2024-03-25T13:44:59;10.57;;;4.05;;
54171;SDS011;40076;52.354;4.970;2024-03-25T13:47:25;10.50;;;3.67;;
54171;SDS011;40076;52.354;4.970;2024-03-25T13:49:59;7.20;;;3.05;;
54171;SDS011;40076;52.354;4.970;2024-03-25T13:52:25;9.43;;;3.65;;
54171;SDS011;40076;52.354;4.970;2024-03-25T13:54:51;8.00;;;3.35;;
54171;SDS011;40076;52.354;4.970;2024-03-25T13:57:16;10.30;;;4.10;;
54171;SDS011;40076;52.354;4.970;2024-03-25T13:59:41;10.25;;;4.57;;
54171;SDS011;40076;52.354;4.970;2024-03-25T14:02:07;9.07;;;3.75;;
54171;SDS011;40076;52.354;4.970;2024-03-25T14:04:32;8.60;;;3.65;;
54171;SDS011;40076;52.354;4.970;2024-03-25T14:06:58;10.40;;;4.18;;
54171;SDS011;40076;52.354;4.970;2024-03-25T14:09:26;9.60;;;3.85;;
54171;SDS011;40076;52.354;4.970;2024-03-25T14:11:52;9.32;;;4.15;;
54171;SDS011;40076;52.354;4.970;2024-03-25T14:14:17;9.25;;;4.00;;
54171;SDS011;40076;52.354;4.970;2024-03-25T14:16:42;8.77;;;4.55;;
54171;SDS011;40076;52.354;4.970;2024-03-25T14:19:08;10.05;;;3.97;;
54171;SDS011;40076;52.354;4.970;2024-03-25T14:21:33;14.55;;;5.18;;
54171;SDS011;40076;52.354;4.970;2024-03-25T14:23:58;9.95;;;3.65;;
54171;SDS011;40076;52.354;4.970;2024-03-25T14:26:24;8.93;;;3.33;;
54171;SDS011;40076;52.354;4.970;2024-03-25T14:28:49;10.20;;;4.13;;
54171;SDS011;40076;52.354;4.970;2024-03-25T14:31:15;13.25;;;3.78;;
54171;SDS011;40076;52.354;4.970;2024-03-25T14:33:43;8.27;;;3.80;;
54171;SDS011;40076;52.354;4.970;2024-03-25T14:36:10;10.77;;;4.00;;